Latest Weather Observations for Melville Water

IDW60801

Issued at 5:33 pm WST Friday 1 July 2016 (issued every 30 minutes, with the page automatically refreshed every 10 minutes)

About weather observations | Map of weather stations | Latest weather observations for WA | Other Formats
Station Details ID: 009091 Name: INNER DOLPHIN PYLON Lat: -31.99 Lon: 115.83 Height: 0.0 m
Data from the previous 72 hours. | See also: Recent months at Melville Water
Date/Time
WST
Temp
°C
App
Temp
°C
Dew
Point
°C
Rel
Hum
%
Delta-T
°C
Wind Press
QNH
hPa
Press
MSL
hPa
Rain since
9am
mm
Dir  Spd
km/h
Gust
km/h
Spd
kts
Gust
kts
01/05:30pm - - - - - S 9 11 5 6 - - -
01/05:00pm - - - - - S 9 11 5 6 - - -
01/04:30pm - - - - - SW 7 9 4 5 - - -
01/04:00pm - - - - - SW 7 9 4 5 - - -
01/03:30pm - - - - - WSW 4 6 2 3 - - -
01/03:00pm - - - - - SW 4 6 2 3 - - -
01/02:30pm - - - - - SSE 6 9 3 5 - - -
01/02:00pm - - - - - S 6 9 3 5 - - -
01/01:30pm - - - - - SSW 2 4 1 2 - - -
01/01:00pm - - - - - NNW 4 6 2 3 - - -
01/12:30pm - - - - - ENE 6 13 3 7 - - -
01/12:00pm - - - - - E 9 19 5 10 - - -
01/11:30am - - - - - ENE 11 19 6 10 - - -
01/11:00am - - - - - ENE 9 11 5 6 - - -
01/10:30am - - - - - ENE 13 15 7 8 - - -
01/10:00am - - - - - ENE 11 13 6 7 - - -
01/09:30am - - - - - ENE 13 17 7 9 - - -
01/09:00am - - - - - ENE 11 15 6 8 - - -
01/08:30am - - - - - E 11 13 6 7 - - -
01/08:00am - - - - - ENE 9 13 5 7 - - -
01/07:30am - - - - - E 6 7 3 4 - - -
01/07:00am - - - - - E 6 7 3 4 - - -
01/06:30am - - - - - ENE 4 6 2 3 - - -
01/06:00am - - - - - E 7 9 4 5 - - -
01/05:30am - - - - - ESE 7 7 4 4 - - -
01/05:00am - - - - - E 7 9 4 5 - - -
01/04:30am - - - - - E 6 9 3 5 - - -
01/04:00am - - - - - ENE 7 9 4 5 - - -
01/03:30am - - - - - E 4 7 2 4 - - -
01/03:00am - - - - - ENE 6 7 3 4 - - -
01/02:30am - - - - - E 6 7 3 4 - - -
01/02:00am - - - - - E 6 7 3 4 - - -
01/01:30am - - - - - ESE 6 7 3 4 - - -
01/01:00am - - - - - E 6 6 3 3 - - -
01/12:30am - - - - - ESE 2 4 1 2 - - -
01/12:00am - - - - - E 4 6 2 3 - - -
 
Date/Time
WST
Temp
°C
App
Temp
°C
Dew
Point
°C
Rel
Hum
%
Delta-T
°C
Wind Press
QNH
hPa
Press
MSL
hPa
Rain since
9am
mm
Dir  Spd
km/h
Gust
km/h
Spd
kts
Gust
kts
30/11:30pm - - - - - E 6 7 3 4 - - -
30/11:00pm - - - - - NE 6 6 3 3 - - -
30/10:30pm - - - - - ENE 6 7 3 4 - - -
30/10:00pm - - - - - ENE 7 11 4 6 - - -
30/09:30pm - - - - - ENE 2 4 1 2 - - -
30/09:00pm - - - - - ESE 4 6 2 3 - - -
30/08:30pm - - - - - S 6 7 3 4 - - -
30/08:00pm - - - - - SSW 11 13 6 7 - - -
30/07:30pm - - - - - SSW 11 15 6 8 - - -
30/07:00pm - - - - - SW 11 13 6 7 - - -
30/06:30pm - - - - - SSW 11 13 6 7 - - -
30/06:00pm - - - - - SSW 11 13 6 7 - - -
30/05:30pm - - - - - SW 13 13 7 7 - - -
30/05:00pm - - - - - SW 13 15 7 8 - - -
30/04:30pm - - - - - WSW 13 17 7 9 - - -
30/04:00pm - - - - - SW 15 19 8 10 - - -
30/03:30pm - - - - - SSW 11 15 6 8 - - -
30/03:00pm - - - - - SW 9 11 5 6 - - -
30/02:30pm - - - - - SW 9 11 5 6 - - -
30/02:00pm - - - - - SW 6 11 3 6 - - -
30/01:30pm - - - - - SSW 11 19 6 10 - - -
30/01:00pm - - - - - SW 6 11 3 6 - - -
30/12:30pm - - - - - S 6 11 3 6 - - -
30/12:00pm - - - - - ENE 2 6 1 3 - - -
30/11:30am - - - - - CALM 0 2 0 1 - - -
30/11:00am - - - - - ENE 4 7 2 4 - - -
30/10:30am - - - - - ENE 6 7 3 4 - - -
30/10:00am - - - - - CALM 0 0 0 0 - - -
30/09:30am - - - - - ESE 4 4 2 2 - - -
30/09:00am - - - - - ENE 6 6 3 3 - - -
30/08:30am - - - - - E 4 6 2 3 - - -
30/08:00am - - - - - NNE 2 4 1 2 - - -
30/07:30am - - - - - ENE 4 6 2 3 - - -
30/07:00am - - - - - NE 4 6 2 3 - - -
30/06:30am - - - - - CALM 0 2 0 1 - - -
30/06:00am - - - - - NNW 4 6 2 3 - - -
30/05:30am - - - - - E 4 7 2 4 - - -
30/05:00am - - - - - ESE 7 9 4 5 - - -
30/04:30am - - - - - E 6 7 3 4 - - -
30/04:00am - - - - - E 7 9 4 5 - - -
30/03:30am - - - - - ESE 6 7 3 4 - - -
30/03:00am - - - - - ESE 6 6 3 3 - - -
30/02:30am - - - - - ESE 6 7 3 4 - - -
30/02:00am - - - - - SE 6 6 3 3 - - -
30/01:30am - - - - - ESE 4 6 2 3 - - -
30/01:00am - - - - - ESE 4 6 2 3 - - -
30/12:30am - - - - - ESE 6 6 3 3 - - -
30/12:00am - - - - - ESE 6 7 3 4 - - -
 
Date/Time
WST
Temp
°C
App
Temp
°C
Dew
Point
°C
Rel
Hum
%
Delta-T
°C
Wind Press
QNH
hPa
Press
MSL
hPa
Rain since
9am
mm
Dir  Spd
km/h
Gust
km/h
Spd
kts
Gust
kts
29/11:30pm - - - - - SE 6 7 3 4 - - -
29/11:00pm - - - - - SE 2 4 1 2 - - -
29/10:30pm - - - - - ESE 6 7 3 4 - - -
29/10:00pm - - - - - ESE 4 4 2 2 - - -
29/09:30pm - - - - - SSE 4 4 2 2 - - -
29/09:00pm - - - - - NE 4 4 2 2 - - -
29/08:30pm - - - - - E 6 7 3 4 - - -
29/08:00pm - - - - - SSE 7 9 4 5 - - -
29/07:30pm - - - - - S 11 15 6 8 - - -
29/07:00pm - - - - - SSW 13 15 7 8 - - -
29/06:30pm - - - - - S 11 15 6 8 - - -
29/06:00pm - - - - - SSW 13 17 7 9 - - -
29/05:30pm - - - - - SSW 13 15 7 8 - - -
29/05:00pm - - - - - SSW 17 22 9 12 - - -
29/04:30pm - - - - - SSW 20 24 11 13 - - -
29/04:00pm - - - - - SSW 22 30 12 16 - - -
29/03:30pm - - - - - SSW 22 26 12 14 - - -
29/03:00pm - - - - - SSW 24 33 13 18 - - -
29/02:30pm - - - - - SW 22 30 12 16 - - -
29/02:00pm - - - - - SSW 20 28 11 15 - - -
29/01:30pm - - - - - SW 19 28 10 15 - - -
29/01:00pm - - - - - SW 20 28 11 15 - - -
29/12:30pm - - - - - SW 20 28 11 15 - - -
29/12:00pm - - - - - SW 17 24 9 13 - - -
29/11:30am - - - - - SW 19 26 10 14 - - -
29/11:00am - - - - - SW 20 26 11 14 - - -
29/10:30am - - - - - SW 20 24 11 13 - - -
29/10:00am - - - - - ENE 4 6 2 3 - - -
29/09:30am - - - - - ESE 4 7 2 4 - - -
29/09:00am - - - - - SE 9 13 5 7 - - -
29/08:30am - - - - - SW 20 26 11 14 - - -
29/08:00am - - - - - WSW 15 19 8 10 - - -
29/07:30am - - - - - WSW 15 19 8 10 - - -
29/07:00am - - - - - WSW 4 6 2 3 - - -
29/06:30am - - - - - WNW 4 6 2 3 - - -
29/06:00am - - - - - WSW 15 22 8 12 - - -
29/05:30am - - - - - WNW 11 13 6 7 - - -
29/05:00am - - - - - WNW 9 11 5 6 - - -
29/04:30am - - - - - W 11 17 6 9 - - -
29/04:00am - - - - - W 7 9 4 5 - - -
29/03:30am - - - - - W 11 13 6 7 - - -
29/03:00am - - - - - W 15 20 8 11 - - -
29/02:30am - - - - - WNW 13 17 7 9 - - -
29/02:00am - - - - - W 15 19 8 10 - - -
29/01:30am - - - - - WNW 7 7 4 4 - - -
29/01:00am - - - - - WNW 9 13 5 7 - - -
29/12:30am - - - - - SW 9 11 5 6 - - -
29/12:00am - - - - - WSW 7 9 4 5 - - -
 
Date/Time
WST
Temp
°C
App
Temp
°C
Dew
Point
°C
Rel
Hum
%
Delta-T
°C
Wind Press
QNH
hPa
Press
MSL
hPa
Rain since
9am
mm
Dir  Spd
km/h
Gust
km/h
Spd
kts
Gust
kts
28/11:30pm - - - - - WNW 7 9 4 5 - - -
28/11:00pm - - - - - W 6 7 3 4 - - -
28/10:30pm - - - - - W 11 13 6 7 - - -
28/10:00pm - - - - - WNW 9 13 5 7 - - -
28/09:30pm - - - - - WNW 9 11 5 6 - - -
28/09:00pm - - - - - W 11 15 6 8 - - -
28/08:30pm - - - - - WNW 9 13 5 7 - - -
28/08:00pm - - - - - NW 6 7 3 4 - - -
28/07:30pm - - - - - WNW 7 9 4 5 - - -
28/07:00pm - - - - - NW 9 11 5 6 - - -
28/06:30pm - - - - - WNW 7 11 4 6 - - -
28/06:00pm - - - - - WNW 7 11 4 6 - - -

Other Formats:

Comma delimited format used in spreadsheet applications
http://www.bom.gov.au/fwo/IDW60801/IDW60801.95620.axf

JavaScript Object Notation format (JSON) in row-major order
http://www.bom.gov.au/fwo/IDW60801/IDW60801.95620.json